Snowden, Virginia
Current Conditions -  °F | °C
As of 1:54 PM on Friday 21 Nov 2014 (Local Time) from KLYH Reporting Station
Clear Clear  
Wind Chill: 37°   Ceiling: Unl
Heat Index: 40°   Visibility: 10mi
Dew Point:   Wind: 5mph
Humidity: 26%   Direction: NA
Pressure: 30.43"   Gusts: NA
Location:  37.5466°N, 79.4046°W
Report Text: KLYH 211854Z VRB04KT 10SM CLR 04/M14 A3043 RMK AO2 SLP309 T00441139 $
Loading
Personal Weather Stations






























Interactive Weather Map New forecast layout! Learn more

10-Day Weather Forecast

Advertisements
Track Severe Weather on mobile